createdAt,value
2018-07-26T00:01:41.624Z,99.90
2018-07-26T00:04:12.690Z,99.90
2018-07-26T00:06:42.783Z,99.90
2018-07-26T00:09:14.758Z,99.90
2018-07-26T00:11:44.918Z,99.90
2018-07-26T00:14:17.990Z,99.90
2018-07-26T00:16:47.895Z,99.90
2018-07-26T00:19:20.733Z,99.90
2018-07-26T00:21:50.905Z,99.90
2018-07-26T00:24:22.739Z,99.90
2018-07-26T00:26:51.752Z,99.90
2018-07-26T00:29:28.205Z,99.90
2018-07-26T00:31:57.914Z,99.90
2018-07-26T00:34:27.538Z,99.90
2018-07-26T00:36:57.076Z,99.90
2018-07-26T00:39:35.375Z,99.90
2018-07-26T00:42:04.724Z,99.90
2018-07-26T00:44:33.958Z,99.90
2018-07-26T00:47:03.729Z,99.90
2018-07-26T00:49:36.820Z,99.90
2018-07-26T00:52:06.943Z,99.90
2018-07-26T00:54:38.823Z,99.90
2018-07-26T00:57:09.763Z,99.90
2018-07-26T00:59:41.767Z,99.90
2018-07-26T01:02:11.311Z,99.90
2018-07-26T01:04:45.504Z,99.90
2018-07-26T01:07:14.924Z,99.90
2018-07-26T01:09:45.808Z,99.90
2018-07-26T01:12:15.319Z,99.90
2018-07-26T01:14:48.448Z,99.90
2018-07-26T01:17:17.940Z,99.90
2018-07-26T01:19:52.082Z,99.90
2018-07-26T01:22:23.379Z,99.90
2018-07-26T01:24:56.150Z,99.90
2018-07-26T01:27:26.203Z,99.90
2018-07-26T01:29:59.096Z,99.90
2018-07-26T01:32:29.976Z,99.90
2018-07-26T01:34:59.979Z,99.90
2018-07-26T01:37:29.818Z,99.90
2018-07-26T01:40:03.296Z,99.90
2018-07-26T01:44:44.424Z,99.90
2018-07-26T01:47:15.486Z,99.90
2018-07-26T01:49:45.002Z,99.90
2018-07-26T01:52:14.383Z,99.90
2018-07-26T01:54:43.858Z,99.90
2018-07-26T01:57:13.570Z,99.90
2018-07-26T01:59:42.662Z,99.90
2018-07-26T02:02:19.085Z,99.90
2018-07-26T02:04:49.074Z,99.90
2018-07-26T02:07:17.999Z,99.90
2018-07-26T02:09:46.992Z,99.90
2018-07-26T02:12:21.049Z,99.90
2018-07-26T02:14:50.403Z,99.90
2018-07-26T02:17:23.458Z,99.90
2018-07-26T02:19:53.495Z,99.90
2018-07-26T02:22:25.167Z,99.90
2018-07-26T02:24:54.259Z,99.90
2018-07-26T02:27:30.631Z,99.90
2018-07-26T02:30:00.837Z,99.90
2018-07-26T02:32:30.695Z,99.90
2018-07-26T02:35:01.550Z,99.90
2018-07-26T02:37:32.595Z,99.90
2018-07-26T02:40:01.749Z,99.90
2018-07-26T02:42:34.120Z,99.90
2018-07-26T02:45:04.017Z,99.90
2018-07-26T02:47:36.592Z,99.90
2018-07-26T02:50:06.021Z,99.90
2018-07-26T02:52:39.229Z,99.90
2018-07-26T02:55:08.604Z,99.90
2018-07-26T02:57:41.399Z,99.90
2018-07-26T03:00:10.749Z,99.90
2018-07-26T03:02:44.138Z,99.90
2018-07-26T03:05:13.244Z,99.90
2018-07-26T03:07:49.777Z,99.90
2018-07-26T03:10:18.739Z,99.90
2018-07-26T03:12:51.420Z,99.90
2018-07-26T03:15:21.361Z,99.90
2018-07-26T03:17:52.193Z,99.90
2018-07-26T03:20:21.497Z,99.90
2018-07-26T03:22:55.756Z,99.90
2018-07-26T03:25:27.776Z,99.90
2018-07-26T03:27:59.326Z,99.90
2018-07-26T03:30:29.787Z,99.90
2018-07-26T03:33:02.973Z,99.90
2018-07-26T03:35:32.790Z,99.90
2018-07-26T03:38:05.298Z,99.90
2018-07-26T03:40:34.292Z,99.90
2018-07-26T03:43:07.512Z,99.90
2018-07-26T03:45:37.393Z,99.90
2018-07-26T03:48:15.330Z,99.90
2018-07-26T03:50:44.928Z,99.90
2018-07-26T03:53:14.769Z,99.90
2018-07-26T03:55:44.249Z,99.90
2018-07-26T03:58:16.759Z,99.90
2018-07-26T04:00:46.207Z,99.90
2018-07-26T04:03:17.967Z,99.90
2018-07-26T04:05:47.456Z,99.90
2018-07-26T04:08:24.787Z,99.90
2018-07-26T04:10:54.443Z,99.90
2018-07-26T04:13:24.354Z,99.90
2018-07-26T04:15:53.465Z,99.90
2018-07-26T04:18:26.401Z,99.90
2018-07-26T04:20:56.511Z,99.90
2018-07-26T04:23:28.044Z,99.90
2018-07-26T04:26:01.434Z,99.90
2018-07-26T04:28:31.013Z,99.90
2018-07-26T04:31:01.344Z,99.90
2018-07-26T04:33:32.853Z,99.90
2018-07-26T04:36:02.088Z,99.90
2018-07-26T04:38:35.316Z,99.90
2018-07-26T04:41:04.844Z,99.90
2018-07-26T04:43:37.469Z,99.90
2018-07-26T04:46:07.076Z,99.90
2018-07-26T04:48:39.954Z,99.90
2018-07-26T04:51:10.462Z,99.90
2018-07-26T04:53:44.608Z,99.90
2018-07-26T04:56:15.485Z,99.90
2018-07-26T04:58:47.224Z,99.90
2018-07-26T05:01:17.024Z,99.90
2018-07-26T05:03:50.627Z,99.90
2018-07-26T05:06:20.072Z,99.90
2018-07-26T05:11:12.320Z,99.90
2018-07-26T05:13:42.112Z,99.90
2018-07-26T05:16:12.012Z,99.90
2018-07-26T05:18:45.285Z,99.90
2018-07-26T05:21:15.716Z,99.90
2018-07-26T05:23:45.101Z,99.90
2018-07-26T05:26:14.580Z,99.90
2018-07-26T05:28:44.146Z,99.90
2018-07-26T05:31:13.633Z,99.90
2018-07-26T05:33:43.168Z,99.90
2018-07-26T05:36:15.176Z,99.90
2018-07-26T05:38:45.728Z,99.90
2018-07-26T05:41:16.126Z,99.90
2018-07-26T05:43:45.669Z,99.90
2018-07-26T05:46:15.710Z,99.90
2018-07-26T05:48:45.781Z,99.90
2018-07-26T05:51:15.990Z,99.90
2018-07-26T05:53:45.880Z,99.90
2018-07-26T05:56:18.754Z,99.90
2018-07-26T05:58:48.964Z,99.90
2018-07-26T06:01:23.603Z,99.90
2018-07-26T06:03:53.151Z,99.90
2018-07-26T06:06:24.083Z,99.90
2018-07-26T06:08:56.238Z,99.90
2018-07-26T06:11:28.803Z,99.90
2018-07-26T06:13:58.514Z,99.90
2018-07-26T06:16:32.813Z,99.90
2018-07-26T06:19:03.175Z,99.90
2018-07-26T06:21:32.708Z,99.90
2018-07-26T06:24:04.156Z,99.90
2018-07-26T06:26:34.176Z,99.90
2018-07-26T06:29:04.211Z,99.90
2018-07-26T06:31:35.801Z,99.90
2018-07-26T06:34:06.064Z,99.90
2018-07-26T06:36:37.750Z,99.90
2018-07-26T06:39:10.874Z,99.90
2018-07-26T06:41:41.499Z,99.90
2018-07-26T06:44:11.019Z,99.90
2018-07-26T06:46:42.484Z,99.90
2018-07-26T06:49:13.642Z,99.90
2018-07-26T06:51:46.254Z,99.90
2018-07-26T06:54:16.005Z,99.90
2018-07-26T06:56:48.023Z,99.90
2018-07-26T06:59:20.010Z,99.90
2018-07-26T07:01:54.185Z,99.90
2018-07-26T07:04:25.838Z,99.90
2018-07-26T07:06:56.502Z,99.90
2018-07-26T07:09:27.389Z,99.90
2018-07-26T07:11:59.585Z,99.90
2018-07-26T07:14:31.931Z,99.90
2018-07-26T07:17:02.023Z,99.90
2018-07-26T07:19:39.117Z,99.90
2018-07-26T07:22:09.171Z,99.90
2018-07-26T07:24:39.828Z,99.90
2018-07-26T07:27:11.884Z,99.90
2018-07-26T07:29:41.627Z,99.90
2018-07-26T07:32:12.428Z,99.90
2018-07-26T07:34:43.533Z,99.70
2018-07-26T07:37:14.265Z,99.40
2018-07-26T07:39:44.602Z,98.90
2018-07-26T07:42:16.176Z,98.90
2018-07-26T07:44:46.696Z,99.00
2018-07-26T07:47:17.252Z,99.20
2018-07-26T07:49:47.150Z,99.40
2018-07-26T07:52:25.348Z,99.10
2018-07-26T07:54:55.271Z,99.20
2018-07-26T07:57:25.187Z,97.30
2018-07-26T07:59:55.151Z,97.40
2018-07-26T08:02:26.210Z,97.40
2018-07-26T08:04:57.392Z,97.20
2018-07-26T08:07:29.218Z,95.80
2018-07-26T08:09:58.869Z,96.50
2018-07-26T08:12:30.508Z,95.50
2018-07-26T08:15:01.250Z,95.50
2018-07-26T08:17:32.495Z,97.00
2018-07-26T08:22:37.695Z,96.70
2018-07-26T08:25:13.167Z,96.00
2018-07-26T08:27:44.018Z,95.30
2018-07-26T08:30:15.145Z,96.30
2018-07-26T08:32:47.126Z,96.30
2018-07-26T08:35:18.545Z,94.90
2018-07-26T08:37:50.025Z,95.20
2018-07-26T08:40:22.744Z,95.20
2018-07-26T08:42:53.306Z,94.80
2018-07-26T08:45:23.250Z,94.30
2018-07-26T08:47:55.560Z,94.30
2018-07-26T08:50:25.604Z,94.30
2018-07-26T08:52:55.747Z,94.60
2018-07-26T08:55:26.790Z,94.10
2018-07-26T08:57:57.813Z,95.70
2018-07-26T09:00:29.666Z,93.90
2018-07-26T09:02:59.670Z,93.80
2018-07-26T09:05:29.764Z,92.70
2018-07-26T09:08:03.350Z,92.30
2018-07-26T09:10:37.547Z,91.60
2018-07-26T09:13:08.314Z,90.70
2018-07-26T09:15:39.418Z,90.10
2018-07-26T09:18:09.605Z,89.90
2018-07-26T09:20:39.704Z,91.10
2018-07-26T09:23:10.776Z,89.80
2018-07-26T09:25:43.550Z,86.90
2018-07-26T09:28:14.197Z,88.30
2018-07-26T09:30:46.133Z,89.10
2018-07-26T09:33:16.807Z,90.30
2018-07-26T09:35:48.083Z,84.40
2018-07-26T09:38:21.425Z,85.00
2018-07-26T09:40:52.478Z,80.10
2018-07-26T09:43:22.780Z,80.90
2018-07-26T09:45:52.562Z,79.20
2018-07-26T09:48:24.622Z,77.70
2018-07-26T09:50:55.081Z,75.10
2018-07-26T09:53:28.173Z,73.10
2018-07-26T09:55:58.849Z,71.40
2018-07-26T09:58:33.677Z,73.60
2018-07-26T10:01:09.519Z,74.60
2018-07-26T10:03:40.869Z,77.40
2018-07-26T10:06:12.526Z,75.80
2018-07-26T10:08:43.008Z,76.70
2018-07-26T10:11:14.873Z,65.70
2018-07-26T10:13:45.160Z,63.40
2018-07-26T10:16:17.930Z,67.80
2018-07-26T10:18:48.529Z,64.10
2018-07-26T10:21:21.810Z,62.70
2018-07-26T10:23:52.165Z,59.10
2018-07-26T10:26:23.297Z,55.90
2018-07-26T10:28:53.262Z,55.90
2018-07-26T10:31:22.382Z,56.40
2018-07-26T10:33:52.185Z,58.40
2018-07-26T10:36:23.153Z,58.80
2018-07-26T10:38:53.487Z,56.50
2018-07-26T10:41:22.822Z,58.60
2018-07-26T10:43:52.082Z,55.40
2018-07-26T10:46:24.205Z,57.30
2018-07-26T10:48:54.129Z,55.90
2018-07-26T10:51:24.835Z,62.70
2018-07-26T10:53:54.704Z,61.70
2018-07-26T10:56:24.550Z,59.00
2018-07-26T10:58:59.321Z,63.60
2018-07-26T11:01:28.282Z,60.70
2018-07-26T11:04:01.850Z,67.00
2018-07-26T11:06:41.152Z,66.60
2018-07-26T11:09:11.137Z,66.60
2018-07-26T11:11:41.842Z,64.10
2018-07-26T11:14:10.824Z,63.20
2018-07-26T11:16:39.998Z,60.60
2018-07-26T11:19:11.937Z,59.20
2018-07-26T11:21:42.511Z,62.20
2018-07-26T11:26:44.507Z,56.80
2018-07-26T11:31:43.830Z,52.70
2018-07-26T11:34:17.296Z,57.10
2018-07-26T11:36:46.317Z,54.00
2018-07-26T11:39:19.452Z,50.70
2018-07-26T11:41:49.438Z,49.40
2018-07-26T11:44:23.255Z,53.80
2018-07-26T11:46:52.824Z,55.10
2018-07-26T11:49:28.196Z,54.80
2018-07-26T11:51:57.086Z,49.50
2018-07-26T11:54:36.253Z,50.60
2018-07-26T11:57:06.887Z,51.10
2018-07-26T11:59:36.104Z,54.10
2018-07-26T12:02:05.457Z,63.10
2018-07-26T12:04:34.702Z,62.00
2018-07-26T12:07:04.987Z,52.60
2018-07-26T12:09:34.408Z,52.70
2018-07-26T12:12:05.140Z,55.20
2018-07-26T12:14:36.163Z,59.30
2018-07-26T12:17:05.225Z,57.10
2018-07-26T12:19:41.644Z,54.70
2018-07-26T12:22:11.134Z,56.10
2018-07-26T12:24:42.699Z,57.60
2018-07-26T12:27:11.540Z,56.50
2018-07-26T12:29:44.328Z,56.90
2018-07-26T12:32:13.601Z,55.60
2018-07-26T12:34:50.390Z,58.00
2018-07-26T12:37:21.655Z,55.30
2018-07-26T12:39:53.319Z,59.60
2018-07-26T12:42:27.904Z,56.70
2018-07-26T12:45:04.576Z,56.60
2018-07-26T12:50:03.477Z,60.20
2018-07-26T12:52:33.263Z,61.70
2018-07-26T12:55:02.218Z,66.60
2018-07-26T12:57:31.696Z,71.90
2018-07-26T13:00:01.119Z,83.50
2018-07-26T13:02:32.652Z,93.30
2018-07-26T13:05:03.254Z,96.20
2018-07-26T13:07:32.433Z,90.90
2018-07-26T13:10:08.970Z,93.80
2018-07-26T13:12:37.849Z,94.80
2018-07-26T13:15:15.993Z,97.60
2018-07-26T13:17:45.165Z,97.90
2018-07-26T13:20:16.714Z,99.90
2018-07-26T13:22:45.761Z,99.90
2018-07-26T13:25:17.429Z,99.90
2018-07-26T13:27:46.579Z,96.90
2018-07-26T13:30:23.674Z,97.50
2018-07-26T13:32:53.964Z,99.70
2018-07-26T13:35:23.962Z,99.90
2018-07-26T13:38:20.881Z,99.80
2018-07-26T13:40:49.683Z,96.80
2018-07-26T13:43:25.863Z,99.10
2018-07-26T13:50:53.664Z,95.60
2018-07-26T13:53:31.721Z,94.80
2018-07-26T13:56:00.729Z,98.00
2018-07-26T13:58:31.196Z,98.00
2018-07-26T14:01:00.689Z,96.10
2018-07-26T14:03:35.190Z,96.90
2018-07-26T14:06:05.875Z,94.40
2018-07-26T14:08:35.186Z,93.30
2018-07-26T14:11:06.699Z,94.80
2018-07-26T14:13:38.266Z,93.00
2018-07-26T14:16:07.537Z,92.60
2018-07-26T14:18:41.158Z,92.60
2018-07-26T14:21:10.321Z,95.40
2018-07-26T14:23:42.487Z,93.20
2018-07-26T14:26:12.678Z,92.00
2018-07-26T14:28:46.409Z,92.60
2018-07-26T14:31:19.094Z,92.70
2018-07-26T14:33:49.187Z,93.10
2018-07-26T14:36:19.689Z,95.40
2018-07-26T14:38:57.101Z,96.10
2018-07-26T14:41:26.672Z,94.60
2018-07-26T14:43:55.447Z,93.90
2018-07-26T14:46:24.510Z,92.50
2018-07-26T14:48:57.222Z,94.20
2018-07-26T14:51:27.131Z,94.00
2018-07-26T14:54:01.291Z,94.20
2018-07-26T14:56:34.627Z,94.20
2018-07-26T14:59:03.945Z,92.60
2018-07-26T15:01:33.781Z,92.60
2018-07-26T15:04:04.166Z,91.60
2018-07-26T15:06:33.182Z,92.30
2018-07-26T15:09:10.307Z,92.80
2018-07-26T15:11:42.185Z,91.20
2018-07-26T15:14:11.825Z,92.00
2018-07-26T15:16:44.429Z,92.20
2018-07-26T15:19:15.930Z,91.70
2018-07-26T15:21:46.953Z,91.80
2018-07-26T15:24:16.148Z,91.50
2018-07-26T15:26:45.661Z,91.50
2018-07-26T15:29:21.553Z,91.60
2018-07-26T15:31:51.546Z,91.90
2018-07-26T15:34:21.835Z,93.10
2018-07-26T15:36:51.287Z,93.40
2018-07-26T15:39:32.369Z,91.40
2018-07-26T15:42:01.124Z,92.00
2018-07-26T15:44:32.086Z,91.90
2018-07-26T15:47:01.759Z,91.40
2018-07-26T15:49:31.169Z,92.10
2018-07-26T15:52:00.221Z,92.30
2018-07-26T15:54:31.436Z,93.00
2018-07-26T15:57:00.396Z,91.50
2018-07-26T15:59:33.164Z,92.40
2018-07-26T16:02:03.701Z,92.70
2018-07-26T16:04:36.658Z,90.10
2018-07-26T16:07:05.657Z,90.50
2018-07-26T16:09:42.245Z,90.70
2018-07-26T16:12:11.169Z,91.00
2018-07-26T16:14:40.893Z,91.10
2018-07-26T16:17:12.515Z,91.40
2018-07-26T16:19:42.751Z,91.50
2018-07-26T16:22:15.721Z,91.50
2018-07-26T16:24:44.782Z,91.70
2018-07-26T16:27:14.233Z,91.80
2018-07-26T16:29:52.680Z,91.70
2018-07-26T16:32:23.601Z,91.50
2018-07-26T16:34:57.425Z,91.60
2018-07-26T16:37:26.974Z,91.40
2018-07-26T16:39:58.687Z,91.20
2018-07-26T16:42:28.216Z,91.80
2018-07-26T16:45:00.577Z,91.10
2018-07-26T16:47:31.337Z,93.90
2018-07-26T16:50:02.501Z,91.90
2018-07-26T16:52:32.478Z,91.30
2018-07-26T16:55:05.560Z,90.80
2018-07-26T16:57:35.210Z,90.40
2018-07-26T17:00:10.626Z,90.50
2018-07-26T17:02:40.007Z,90.30
2018-07-26T17:05:09.371Z,90.90
2018-07-26T17:07:38.625Z,91.30
2018-07-26T17:10:16.341Z,89.70
2018-07-26T17:12:48.620Z,89.30
2018-07-26T17:15:18.683Z,91.00
2018-07-26T17:17:48.189Z,90.30
2018-07-26T17:20:17.876Z,90.20
2018-07-26T17:22:46.898Z,91.20
2018-07-26T17:25:24.597Z,91.10
2018-07-26T17:27:55.997Z,90.70
2018-07-26T17:30:25.670Z,90.50
2018-07-26T17:32:54.981Z,91.40
2018-07-26T17:35:27.996Z,91.40
2018-07-26T17:37:57.208Z,91.40
2018-07-26T17:43:02.540Z,93.40
2018-07-26T17:45:33.697Z,91.50
2018-07-26T17:48:03.445Z,91.40
2018-07-26T17:50:32.341Z,91.80
2018-07-26T17:53:02.625Z,92.30
2018-07-26T17:55:35.970Z,92.80
2018-07-26T17:58:06.047Z,93.40
2018-07-26T18:00:40.091Z,93.20
2018-07-26T18:03:09.196Z,94.40
2018-07-26T18:05:40.099Z,93.40
2018-07-26T18:08:08.999Z,94.00
2018-07-26T18:10:42.177Z,93.60
2018-07-26T18:13:11.628Z,93.20
2018-07-26T18:15:44.597Z,93.70
2018-07-26T18:18:13.724Z,93.70
2018-07-26T18:20:50.153Z,93.80
2018-07-26T18:23:19.281Z,93.40
2018-07-26T18:25:49.165Z,93.50
2018-07-26T18:28:18.718Z,93.80
2018-07-26T18:30:57.705Z,93.80
2018-07-26T18:33:30.431Z,93.50
2018-07-26T18:36:00.024Z,93.10
2018-07-26T18:38:35.571Z,93.70
2018-07-26T18:41:24.937Z,94.20
2018-07-26T18:46:31.329Z,94.50
2018-07-26T18:49:02.159Z,94.50
2018-07-26T18:54:05.023Z,94.80
2018-07-26T18:56:33.921Z,94.80
2018-07-26T18:59:09.674Z,95.20
2018-07-26T19:01:39.668Z,95.60
2018-07-26T19:04:14.720Z,95.50
2018-07-26T19:06:44.006Z,96.50
2018-07-26T19:11:45.373Z,95.80
2018-07-26T19:14:22.701Z,96.00
2018-07-26T19:16:52.244Z,95.90
2018-07-26T19:19:21.558Z,96.70
2018-07-26T19:21:56.227Z,96.10
2018-07-26T19:26:56.437Z,96.60
2018-07-26T19:29:26.848Z,96.80
2018-07-26T19:31:58.201Z,97.00
2018-07-26T19:34:31.645Z,97.10
2018-07-26T19:37:07.272Z,97.70
2018-07-26T19:39:38.254Z,98.00
2018-07-26T19:42:10.313Z,97.50
2018-07-26T19:44:39.412Z,97.20
2018-07-26T19:47:08.827Z,97.10
2018-07-26T19:49:39.290Z,97.60
2018-07-26T19:52:09.680Z,97.80
2018-07-26T19:54:39.632Z,98.40
2018-07-26T19:57:10.866Z,98.60
2018-07-26T19:59:41.744Z,98.60
2018-07-26T20:02:11.704Z,98.10
2018-07-26T20:04:43.441Z,97.90
2018-07-26T20:07:13.162Z,98.60
2018-07-26T20:09:44.274Z,98.40
2018-07-26T20:12:15.174Z,98.80
2018-07-26T20:14:47.958Z,98.50
2018-07-26T20:17:17.668Z,98.80
2018-07-26T20:19:52.181Z,99.00
2018-07-26T20:22:21.252Z,99.50
2018-07-26T20:24:54.817Z,99.10
2018-07-26T20:27:24.244Z,98.80
2018-07-26T20:30:02.325Z,99.30
2018-07-26T20:32:33.308Z,99.70
2018-07-26T20:35:03.520Z,99.90
2018-07-26T20:37:34.569Z,99.60
2018-07-26T20:40:04.163Z,99.90
2018-07-26T20:42:37.570Z,99.90
2018-07-26T20:45:08.753Z,99.90
2018-07-26T20:47:37.969Z,99.90
2018-07-26T20:50:08.730Z,99.80
2018-07-26T20:52:38.669Z,99.80
2018-07-26T20:55:15.240Z,99.90
2018-07-26T20:57:44.150Z,99.90
2018-07-26T21:00:16.097Z,99.90
2018-07-26T21:02:48.546Z,99.90
2018-07-26T21:05:18.725Z,99.90
2018-07-26T21:07:49.847Z,99.90
2018-07-26T21:10:21.137Z,99.90
2018-07-26T21:12:53.150Z,99.90
2018-07-26T21:15:22.457Z,99.90
2018-07-26T21:17:52.103Z,99.90
2018-07-26T21:20:23.670Z,99.70
2018-07-26T21:22:55.607Z,99.40
2018-07-26T21:25:29.149Z,99.60
2018-07-26T21:30:41.661Z,98.90
2018-07-26T21:33:12.146Z,98.60
2018-07-26T21:35:44.112Z,99.10
2018-07-26T21:38:15.685Z,98.30
2018-07-26T21:40:47.679Z,98.20
2018-07-26T21:43:21.428Z,98.70
2018-07-26T21:45:50.295Z,99.50
2018-07-26T21:48:19.874Z,99.90
2018-07-26T21:50:50.460Z,99.40
2018-07-26T21:53:19.600Z,98.80
2018-07-26T21:55:51.042Z,99.00
2018-07-26T21:58:20.235Z,99.10
2018-07-26T22:00:54.377Z,99.90
2018-07-26T22:03:23.204Z,99.60
2018-07-26T22:05:52.600Z,99.20
2018-07-26T22:08:21.511Z,99.60
2018-07-26T22:10:51.539Z,99.50
2018-07-26T22:13:21.243Z,98.70
2018-07-26T22:15:51.493Z,98.70
2018-07-26T22:18:22.421Z,98.90
2018-07-26T22:20:52.612Z,99.00
2018-07-26T22:23:23.213Z,99.60
2018-07-26T22:25:58.264Z,99.90
2018-07-26T22:28:27.902Z,99.40
2018-07-26T22:30:58.391Z,99.70
2018-07-26T22:33:28.085Z,99.90
2018-07-26T22:36:04.568Z,99.90
2018-07-26T22:38:34.179Z,99.90
2018-07-26T22:41:04.354Z,98.70
2018-07-26T22:43:34.411Z,99.90
2018-07-26T22:46:06.756Z,98.00
2018-07-26T22:48:38.409Z,98.50
2018-07-26T22:51:11.183Z,99.00
2018-07-26T22:53:42.590Z,99.10
2018-07-26T22:56:13.987Z,99.20
2018-07-26T22:58:43.741Z,99.10
2018-07-26T23:01:15.701Z,99.40
2018-07-26T23:03:51.903Z,99.40
2018-07-26T23:06:21.815Z,99.70
2018-07-26T23:08:52.145Z,99.80
2018-07-26T23:11:22.171Z,99.10
2018-07-26T23:13:51.536Z,98.70
2018-07-26T23:16:24.156Z,98.60
2018-07-26T23:18:53.536Z,99.10
2018-07-26T23:21:25.654Z,99.20
2018-07-26T23:23:54.349Z,98.70
2018-07-26T23:26:27.395Z,98.90
2018-07-26T23:28:56.171Z,98.80
2018-07-26T23:31:32.518Z,98.80
2018-07-26T23:34:02.017Z,99.40
2018-07-26T23:38:04.353Z,99.30
2018-07-26T23:40:33.821Z,99.20
2018-07-26T23:43:02.780Z,99.40
2018-07-26T23:45:43.255Z,99.00
2018-07-26T23:48:13.105Z,99.40
2018-07-26T23:50:42.403Z,99.40
2018-07-26T23:53:12.156Z,99.50
2018-07-26T23:55:41.224Z,99.50
2018-07-26T23:58:10.668Z,99.10
